Terminal Aerodrome Forecast
Issued by NWS

Current Version | Previous Version | Text Only | Print | Product List | Glossary On
Versions: 1 2 3 4 5 6 7 8 9 10 11 12 13 14 15 16 17 18 19 20 21 22 23 24
701
FTUS45 KREV 292324
TAFCXP
TAF
KCXP 292324Z 3000/3024 16006KT P6SM SCT090 SCT140 BKN200
     FM300100 26009G16KT P6SM SCT090 BKN140 BKN200
     FM300400 VRB04KT P6SM FEW110 BKN180
     FM302000 23010G20KT P6SM SCT080=

USA.gov is the U.S. government's official web portal to all federal, state and local government web resources and services.